Kelly, WY (83011)

12:06 PM MST on February 10, 2016 (GMT -0700)
Jackson Hole | | Change Station
CLOSE
Current Station
Airport
Location: Jackson,
Elevation: 6450 ft
Nearby Weather Stations

Elev 6450 ft 43.61 °N, 110.74 °W | Updated 15 minutes ago

Partly Cloudy
Partly Cloudy
14 °F
Feels Like 14 °F
N
0
Wind Variable Wind from North

Today
High -- | Low -- °F
--% Chance of Precip.
Yesterday
High -- | Low -- °F
Precip. -- in
Pressure 30.42 in
Visibility 6.0 miles
Clouds Mostly Cloudy 2000 ft
Dew Point 12 °F
Humidity 93%
Rainfall 0.00 in
Snow Depth Not available.
7:27 AM 5:44 PM
Waxing Crescent, 6% visible
METAR KJAC 101851Z 00000KT 6SM BR BKN020 M10/M11 A3042
Pressure 30.42 in
Visibility 6.0 miles
Clouds Mostly Cloudy 2000 ft
Dew Point 12 °F
Humidity 93%
Rainfall 0.00 in
Snow Depth Not available.
7:27 AM 5:44 PM
Waxing Crescent, 6% visible
METAR KJAC 101851Z 00000KT 6SM BR BKN020 M10/M11 A3042

10-Day Weather Forecast

Almanac

Astronomy

Feb. 10, 2016 Rise Set
Actual Time
Civil Twilight
Nautical Twilight
Astronomical Twilight
Moon
Length of Visible Light
Length of Day
Tomorrow will be .
, % of the Moon is Illuminated

Today's Extremes

State Highs State Lows

Community

WunderPhotos

Upload Photos

1,891,921 photos uploaded!

WunderBlog® & News

Nearby

Air Quality

  Air Quality AQ Index Pollutant
Not available.

Snow Depth

Station Depth Elevation

Earthquake Activity

City Distance Mag. Time & Date
Minimum magnitude displayed is 2.5.

Coastal Water Temperatures

Place Temperature

Stations

Nearby Weather Stations

Station Location Temp. Windchill Dew Point Humidity Wind Precip. Elev Updated Type
                   

Watches & Warnings

There are currently no watches in effect.